LGHI/JKH METAR and TAF weather

Enter ICAO airport designator
Station Type Date Time Source
LGHI METAR 2019/08/22 18:50 UTC NOAA

LGHI 221850Z 01017KT CAVOK 28/19 Q1012


Station Type Date Time Source
LGHI Decoded METAR 2019/08/22 18:50 UTC NOAA

Station name not available
Aug 22, 2019 - 02:50 PM EDT / 2019.08.22 1850 UTC
Wind: from the N (010 degrees) at 20 MPH (17 KT):0
Visibility: greater than 7 mile(s):0
Temperature: 82 F (28 C)
Dew Point: 66 F (19 C)
Relative Humidity: 58%
Pressure (altimeter): 29.88 in. Hg (1012 hPa)
ob: LGHI 221850Z 01017KT CAVOK 28/19 Q1012
cycle: 19

Station Type Date Time Source
LGHI TAF 2012/09/21 03:06 UTC NOAA

TAF TAF LGHI 210200Z 2103/2115 VRB05KT 9999 SCT020 PROB30
TEMPO 2103/2106 7000 RA SCT018 BKN030
BECMG 2103/2105 30018KT

Example: see airport list